Time;durP1;ratioP1;P1;durP2;ratioP2;P2;SDS_P1;SDS_P2;PMS_P1;PMS_P2;Temp;Humidity;BMP_temperature;BMP_pressure;BME280_temperature;BME280_humidity;BME280_pressure;Samples;Min_cycle;Max_cycle;Signal;HPM_P1;HPM_P2
2021/04/08 00:00:47;;;;;;;4.73;4.10;;;2.70;99.90;;;;;;5052621;28;20536;-68
2021/04/08 00:03:14;;;;;;;10.20;4.00;;;2.60;99.90;;;;;;5052436;28;20817;-68
2021/04/08 00:05:41;;;;;;;6.50;4.17;;;2.60;99.90;;;;;;5052439;28;20527;-67
2021/04/08 00:08:08;;;;;;;7.07;4.60;;;2.60;99.90;;;;;;5052979;28;20519;-68
2021/04/08 00:10:34;;;;;;;6.03;4.27;;;2.60;99.90;;;;;;5052405;28;20451;-68
2021/04/08 00:13:00;;;;;;;5.00;3.93;;;2.60;99.90;;;;;;5052069;28;20491;-67
2021/04/08 00:15:27;;;;;;;5.10;4.37;;;2.70;99.90;;;;;;5052466;28;20471;-68
2021/04/08 00:17:55;;;;;;;10.10;6.70;;;2.70;99.90;;;;;;5052532;28;20535;-68
2021/04/08 00:20:22;;;;;;;6.00;4.23;;;2.70;99.90;;;;;;5051988;28;20455;-68
2021/04/08 00:22:50;;;;;;;5.50;4.40;;;2.70;99.90;;;;;;5051675;28;20978;-68
2021/04/08 00:25:16;;;;;;;5.60;4.20;;;2.80;99.90;;;;;;5052305;28;20471;-67
2021/04/08 00:27:43;;;;;;;6.10;4.70;;;2.80;99.90;;;;;;5052122;28;20506;-68
2021/04/08 00:30:11;;;;;;;9.47;4.33;;;2.80;99.90;;;;;;5052293;28;21022;-68
2021/04/08 00:32:38;;;;;;;7.60;4.50;;;2.70;99.90;;;;;;5051481;28;20512;-69
2021/04/08 00:35:05;;;;;;;6.30;4.20;;;2.70;99.90;;;;;;5051931;28;20522;-68
2021/04/08 00:37:32;;;;;;;5.53;4.20;;;2.70;99.90;;;;;;5051857;28;20513;-68
2021/04/08 00:39:59;;;;;;;4.73;3.90;;;2.70;99.90;;;;;;5051986;28;20955;-68
2021/04/08 00:42:26;;;;;;;4.80;3.97;;;2.70;99.90;;;;;;5051312;28;20551;-68
2021/04/08 00:44:52;;;;;;;6.17;3.60;;;2.70;99.90;;;;;;5051749;28;20509;-68
2021/04/08 00:47:20;;;;;;;5.80;4.20;;;2.70;99.90;;;;;;5051822;28;21286;-68
2021/04/08 00:49:46;;;;;;;6.20;3.70;;;2.70;99.90;;;;;;5054689;28;20463;-68
2021/04/08 00:52:12;;;;;;;5.80;4.60;;;2.70;99.90;;;;;;5051815;28;20574;-67
2021/04/08 00:54:39;;;;;;;5.50;3.80;;;2.80;99.90;;;;;;5051449;28;20440;-67
2021/04/08 00:57:08;;;;;;;6.70;4.40;;;2.80;99.90;;;;;;5051772;28;20447;-68
2021/04/08 00:59:34;;;;;;;4.27;3.87;;;2.80;99.90;;;;;;5051544;28;20973;-67
2021/04/08 01:02:00;;;;;;;5.83;4.30;;;2.90;99.90;;;;;;5051776;28;20545;-67
2021/04/08 01:04:27;;;;;;;5.20;3.70;;;2.90;99.90;;;;;;5051086;28;20471;-68
2021/04/08 01:06:53;;;;;;;7.37;4.60;;;3.00;99.90;;;;;;5051108;28;20454;-67
2021/04/08 01:09:20;;;;;;;6.57;4.17;;;2.90;99.90;;;;;;5051025;28;20951;-67
2021/04/08 01:11:46;;;;;;;7.07;4.47;;;3.00;99.90;;;;;;5050978;28;20904;-68
2021/04/08 01:14:14;;;;;;;5.67;4.33;;;3.00;99.90;;;;;;5050923;28;20539;-68
2021/04/08 01:16:47;;;;;;;6.23;4.13;;;3.10;99.90;;;;;;5051305;28;20539;-68
2021/04/08 01:19:45;;;;;;;6.63;4.27;;;3.10;99.90;;;;;;5051082;28;20443;-68
2021/04/08 01:22:24;;;;;;;5.67;3.80;;;3.10;99.90;;;;;;5050999;28;20547;-68
2021/04/08 01:25:10;;;;;;;5.13;3.97;;;3.30;99.90;;;;;;5051184;28;20529;-67
2021/04/08 01:27:49;;;;;;;3.77;3.07;;;3.30;99.90;;;;;;5050933;28;20900;-67
2021/04/08 01:30:23;;;;;;;5.73;3.50;;;3.30;99.90;;;;;;5050623;28;20486;-67
2021/04/08 01:32:53;;;;;;;4.70;3.60;;;3.30;99.90;;;;;;5050302;28;20562;-67
2021/04/08 01:35:24;;;;;;;5.90;4.03;;;3.40;99.90;;;;;;5050841;28;20543;-67
2021/04/08 01:37:57;;;;;;;5.00;3.70;;;3.40;99.90;;;;;;5050969;28;20796;-68
2021/04/08 01:40:25;;;;;;;4.60;3.30;;;3.40;99.90;;;;;;5050761;28;20531;-67
2021/04/08 01:42:54;;;;;;;5.37;4.50;;;3.40;99.90;;;;;;5050229;28;20463;-67
2021/04/08 01:45:22;;;;;;;5.43;4.10;;;3.30;99.90;;;;;;5050430;28;20475;-68
2021/04/08 01:47:52;;;;;;;5.57;4.13;;;3.30;99.90;;;;;;5050871;28;20472;-67
2021/04/08 01:50:20;;;;;;;7.77;4.43;;;3.40;99.90;;;;;;5050680;28;20535;-67
2021/04/08 01:52:49;;;;;;;6.17;4.00;;;3.30;99.90;;;;;;5050194;28;21120;-67
2021/04/08 01:55:17;;;;;;;6.07;3.73;;;3.30;99.90;;;;;;5050618;28;20483;-67
2021/04/08 01:57:46;;;;;;;5.43;4.20;;;3.30;99.90;;;;;;5050555;28;20475;-67
2021/04/08 02:00:15;;;;;;;6.80;3.80;;;3.30;99.90;;;;;;5050511;28;20539;-68
2021/04/08 02:02:45;;;;;;;6.80;4.37;;;3.30;99.90;;;;;;5050402;28;20499;-67
2021/04/08 02:05:15;;;;;;;5.27;4.07;;;3.30;99.90;;;;;;5050641;28;20440;-67
2021/04/08 02:07:42;;;;;;;6.53;4.30;;;3.30;99.90;;;;;;5050755;28;20867;-68
2021/04/08 02:10:11;;;;;;;5.40;4.47;;;3.20;99.90;;;;;;5050430;28;20551;-68
2021/04/08 02:12:39;;;;;;;5.53;5.03;;;3.20;99.90;;;;;;5049829;28;21009;-69
2021/04/08 02:15:09;;;;;;;8.27;4.13;;;3.20;99.90;;;;;;5050479;28;20896;-68
2021/04/08 02:17:37;;;;;;;6.73;3.20;;;3.20;99.90;;;;;;5050185;28;20531;-68
2021/04/08 02:20:08;;;;;;;5.83;3.20;;;3.20;99.90;;;;;;5050262;28;20535;-68
2021/04/08 02:22:38;;;;;;;9.07;4.33;;;3.20;99.90;;;;;;5049847;28;20688;-68
2021/04/08 02:25:08;;;;;;;5.10;4.27;;;3.30;99.90;;;;;;5050132;28;20535;-68
2021/04/08 02:27:36;;;;;;;5.37;4.17;;;3.30;99.90;;;;;;5050291;28;20482;-68
2021/04/08 02:30:03;;;;;;;5.77;3.60;;;3.30;99.90;;;;;;5050151;28;20534;-68
2021/04/08 02:32:30;;;;;;;5.30;4.03;;;3.30;99.90;;;;;;5049707;28;20566;-68
2021/04/08 02:34:56;;;;;;;5.37;3.53;;;3.30;99.90;;;;;;5049986;28;20491;-68
2021/04/08 02:37:23;;;;;;;4.73;3.20;;;3.30;99.90;;;;;;5050097;28;20546;-68
2021/04/08 02:39:50;;;;;;;5.70;3.30;;;3.30;99.90;;;;;;5049766;28;20547;-68
2021/04/08 02:42:16;;;;;;;7.17;3.87;;;3.30;99.90;;;;;;5050815;28;20539;-68
2021/04/08 02:44:42;;;;;;;5.83;2.83;;;3.30;99.90;;;;;;5053450;28;20997;-68
2021/04/08 02:47:09;;;;;;;6.10;3.30;;;3.30;99.90;;;;;;5053947;28;20518;-68
2021/04/08 02:49:37;;;;;;;6.27;3.30;;;3.30;99.90;;;;;;5053795;28;20440;-68
2021/04/08 02:52:06;;;;;;;4.27;2.80;;;3.40;99.90;;;;;;5053680;28;20475;-68
2021/04/08 02:54:38;;;;;;;8.93;3.67;;;3.40;99.90;;;;;;5053892;28;20539;-68
2021/04/08 02:57:10;;;;;;;5.00;3.40;;;3.40;99.90;;;;;;5054032;28;20548;-68
2021/04/08 02:59:44;;;;;;;5.00;3.53;;;3.40;99.90;;;;;;5053477;28;20473;-68
2021/04/08 03:02:14;;;;;;;5.23;3.50;;;3.40;99.90;;;;;;5047163;28;20538;-68
2021/04/08 03:04:46;;;;;;;9.10;3.30;;;3.40;99.90;;;;;;5053289;28;20527;-68
2021/04/08 03:07:13;;;;;;;3.70;2.90;;;3.40;99.90;;;;;;5053853;28;20451;-68
2021/04/08 03:09:41;;;;;;;4.13;3.10;;;3.40;99.90;;;;;;5053480;28;20523;-68
2021/04/08 03:12:13;;;;;;;7.87;3.57;;;3.40;99.90;;;;;;5053323;28;20501;-68
2021/04/08 03:14:42;;;;;;;4.33;3.53;;;3.50;99.90;;;;;;5053000;28;20581;-68
2021/04/08 03:17:11;;;;;;;5.10;3.90;;;3.50;99.90;;;;;;5053191;28;20530;-67
2021/04/08 03:19:40;;;;;;;8.00;4.17;;;3.40;99.90;;;;;;5053534;28;20470;-68
2021/04/08 03:22:10;;;;;;;3.87;3.30;;;3.40;99.90;;;;;;5053390;28;20601;-68
2021/04/08 03:24:37;;;;;;;8.00;3.70;;;3.40;99.90;;;;;;5053010;28;20485;-68
2021/04/08 03:27:05;;;;;;;6.47;3.87;;;3.40;99.90;;;;;;5053296;28;20515;-68
2021/04/08 03:29:33;;;;;;;7.27;4.80;;;3.40;99.90;;;;;;5053396;28;20946;-68
2021/04/08 03:32:01;;;;;;;5.70;4.73;;;3.40;99.90;;;;;;5053134;28;20536;-68
2021/04/08 03:34:28;;;;;;;5.17;3.80;;;3.40;99.90;;;;;;5053141;28;20506;-68
2021/04/08 03:36:55;;;;;;;10.53;4.27;;;3.30;99.90;;;;;;5052997;28;20543;-68
2021/04/08 03:39:21;;;;;;;5.07;3.87;;;3.30;99.90;;;;;;5050982;28;20440;-68
2021/04/08 03:41:49;;;;;;;6.27;4.80;;;3.30;99.90;;;;;;5034757;28;20536;-68
2021/04/08 03:44:16;;;;;;;4.53;3.83;;;3.30;99.90;;;;;;5051420;28;20527;-68
2021/04/08 03:46:45;;;;;;;6.07;3.80;;;3.30;99.90;;;;;;5052795;28;20923;-68
2021/04/08 03:49:14;;;;;;;6.60;3.77;;;3.20;99.90;;;;;;5053249;28;20448;-68
2021/04/08 03:51:41;;;;;;;7.90;4.50;;;3.20;99.90;;;;;;5052795;28;20928;-68
2021/04/08 03:54:12;;;;;;;6.63;4.80;;;3.10;99.90;;;;;;5051700;28;20464;-68
2021/04/08 03:56:42;;;;;;;6.90;4.80;;;3.10;99.90;;;;;;5052608;28;20527;-68
2021/04/08 03:59:10;;;;;;;6.53;4.67;;;3.10;99.90;;;;;;5052719;28;20444;-68
2021/04/08 04:01:38;;;;;;;5.43;3.90;;;3.10;99.90;;;;;;5052650;28;20472;-68
2021/04/08 04:04:08;;;;;;;6.80;4.83;;;3.10;99.90;;;;;;5052613;28;20451;-69
2021/04/08 04:06:37;;;;;;;6.27;4.57;;;3.10;99.90;;;;;;5052641;28;21137;-69
2021/04/08 04:09:05;;;;;;;6.17;4.63;;;3.10;99.90;;;;;;5052540;28;20538;-70
2021/04/08 04:11:32;;;;;;;8.63;5.70;;;3.10;99.90;;;;;;5052150;28;20480;-68
2021/04/08 04:14:01;;;;;;;12.40;4.70;;;3.10;99.90;;;;;;5051760;28;20520;-69
2021/04/08 04:16:29;;;;;;;5.50;4.27;;;3.00;99.90;;;;;;5052426;28;20531;-69
2021/04/08 04:18:56;;;;;;;6.27;4.43;;;3.00;99.90;;;;;;5052142;28;20447;-68
2021/04/08 04:21:23;;;;;;;5.33;4.50;;;2.90;99.90;;;;;;5052214;28;20470;-68
2021/04/08 04:23:50;;;;;;;8.77;5.00;;;2.90;99.90;;;;;;5052191;28;20908;-68
2021/04/08 04:26:16;;;;;;;10.13;4.67;;;2.90;99.90;;;;;;5052353;28;20468;-68
2021/04/08 04:28:43;;;;;;;6.93;3.93;;;2.90;99.90;;;;;;5052382;28;20480;-68
2021/04/08 04:31:09;;;;;;;7.70;5.27;;;2.90;99.90;;;;;;5051845;28;20547;-68
2021/04/08 04:33:37;;;;;;;6.90;4.30;;;2.90;99.90;;;;;;5051912;28;20519;-68
2021/04/08 04:36:04;;;;;;;4.87;4.37;;;2.90;99.90;;;;;;5052134;28;20927;-68
2021/04/08 04:38:31;;;;;;;6.03;5.00;;;2.90;99.90;;;;;;5052256;28;21161;-68
2021/04/08 04:40:58;;;;;;;5.17;4.63;;;3.00;99.90;;;;;;5051268;28;20530;-73
2021/04/08 04:43:24;;;;;;;7.20;5.40;;;3.00;99.90;;;;;;5051711;28;20472;-68
2021/04/08 04:45:51;;;;;;;8.80;4.80;;;3.00;99.90;;;;;;5051365;28;21037;-68
2021/04/08 04:48:17;;;;;;;6.13;4.77;;;3.00;99.90;;;;;;5051642;28;20444;-68
2021/04/08 04:50:44;;;;;;;12.77;6.23;;;3.10;99.90;;;;;;5051773;28;20594;-68
2021/04/08 04:53:10;;;;;;;10.80;5.37;;;3.00;99.90;;;;;;5051448;28;20484;-68
2021/04/08 04:55:37;;;;;;;8.70;4.93;;;3.10;99.90;;;;;;5052074;28;20464;-68
2021/04/08 04:58:04;;;;;;;13.07;5.07;;;3.10;99.90;;;;;;5051346;28;20483;-68
2021/04/08 05:00:30;;;;;;;5.30;4.80;;;3.00;99.90;;;;;;5051336;28;20523;-68
2021/04/08 05:02:56;;;;;;;10.40;5.00;;;3.00;99.90;;;;;;5050879;28;20460;-68
2021/04/08 05:05:23;;;;;;;7.13;5.00;;;3.00;99.90;;;;;;5050786;28;21003;-68
2021/04/08 05:07:49;;;;;;;6.90;5.50;;;3.00;99.90;;;;;;5051388;28;20533;-68
2021/04/08 05:10:15;;;;;;;7.80;5.07;;;3.00;99.90;;;;;;5051606;28;20597;-68
2021/04/08 05:12:43;;;;;;;8.50;5.33;;;3.10;99.90;;;;;;5050818;28;20494;-68
2021/04/08 05:15:10;;;;;;;6.10;5.40;;;3.20;99.90;;;;;;5048929;28;20519;-69
2021/04/08 05:17:36;;;;;;;5.77;5.03;;;3.20;99.90;;;;;;5050517;28;20451;-68
2021/04/08 05:20:04;;;;;;;9.53;6.47;;;3.30;99.90;;;;;;5050950;28;20452;-68
2021/04/08 05:22:30;;;;;;;8.07;5.43;;;3.30;99.90;;;;;;5051000;28;20602;-68
2021/04/08 05:24:56;;;;;;;9.53;4.73;;;3.20;99.90;;;;;;5051464;28;20494;-68
2021/04/08 05:27:23;;;;;;;6.00;5.40;;;3.30;99.90;;;;;;5051248;28;20537;-67
2021/04/08 05:29:50;;;;;;;7.10;5.17;;;3.30;99.90;;;;;;5050896;28;20547;-67
2021/04/08 05:32:16;;;;;;;7.80;4.50;;;3.30;99.90;;;;;;5050972;28;20609;-68
2021/04/08 05:34:43;;;;;;;7.93;5.80;;;3.40;99.90;;;;;;5050596;28;20479;-67
2021/04/08 05:37:09;;;;;;;6.10;4.40;;;3.40;99.90;;;;;;5045403;28;20449;-67
2021/04/08 05:39:35;;;;;;;7.30;4.30;;;3.40;99.90;;;;;;5040874;28;20507;-67
2021/04/08 05:42:02;;;;;;;7.40;4.30;;;3.50;99.90;;;;;;5050726;28;20466;-68
2021/04/08 05:44:28;;;;;;;8.73;5.37;;;3.50;99.90;;;;;;5050650;28;20530;-68
2021/04/08 05:46:55;;;;;;;5.63;4.87;;;3.50;99.90;;;;;;5050913;28;20530;-68
2021/04/08 05:49:22;;;;;;;5.93;5.13;;;3.50;99.90;;;;;;5050712;28;20886;-67
2021/04/08 05:51:48;;;;;;;6.17;4.63;;;3.60;99.90;;;;;;5050533;28;20479;-68
2021/04/08 05:54:15;;;;;;;5.60;5.10;;;3.60;99.90;;;;;;5050394;28;20531;-68
2021/04/08 05:56:41;;;;;;;8.40;4.87;;;3.60;99.90;;;;;;5050506;28;20538;-67
2021/04/08 05:59:07;;;;;;;6.37;5.17;;;3.70;99.90;;;;;;5050584;28;20482;-67
2021/04/08 06:01:34;;;;;;;6.40;4.03;;;3.70;99.90;;;;;;5050987;28;20543;-67
2021/04/08 06:04:01;;;;;;;8.07;5.30;;;3.70;99.90;;;;;;5050130;28;20535;-67
2021/04/08 06:06:27;;;;;;;7.33;4.97;;;3.60;99.90;;;;;;5050096;28;20476;-67
2021/04/08 06:08:54;;;;;;;8.17;4.63;;;3.70;99.90;;;;;;5050029;28;20998;-67
2021/04/08 06:11:20;;;;;;;7.33;4.90;;;3.60;99.90;;;;;;5049766;28;20555;-67
2021/04/08 06:13:48;;;;;;;7.17;4.90;;;3.70;99.90;;;;;;5049693;28;20455;-67
2021/04/08 06:16:15;;;;;;;5.50;4.60;;;3.70;99.90;;;;;;5050067;28;20454;-67
2021/04/08 06:18:41;;;;;;;6.93;4.67;;;3.70;99.90;;;;;;5050013;28;20455;-67
2021/04/08 06:21:09;;;;;;;7.10;4.87;;;3.70;99.90;;;;;;5055659;28;20483;-67
2021/04/08 06:23:35;;;;;;;6.67;5.60;;;3.80;99.90;;;;;;5049571;28;20528;-67
2021/04/08 06:26:01;;;;;;;8.17;6.27;;;3.80;99.90;;;;;;5050045;28;20567;-67
2021/04/08 06:28:28;;;;;;;11.13;5.63;;;3.90;99.90;;;;;;5049741;28;20547;-67
2021/04/08 06:30:54;;;;;;;6.73;5.07;;;4.00;99.90;;;;;;5049608;28;20502;-67
2021/04/08 06:33:20;;;;;;;10.43;6.40;;;4.00;99.90;;;;;;5049410;28;20484;-67
2021/04/08 06:35:47;;;;;;;7.90;6.00;;;4.00;99.90;;;;;;5049632;28;20633;-67
2021/04/08 06:38:14;;;;;;;8.00;5.70;;;4.10;99.90;;;;;;5049590;28;20539;-67
2021/04/08 06:40:40;;;;;;;6.20;5.23;;;4.20;99.90;;;;;;5049768;28;20452;-67
2021/04/08 06:43:11;;;;;;;6.57;4.77;;;4.20;99.90;;;;;;5049179;28;20462;-67
2021/04/08 06:45:43;;;;;;;7.23;6.30;;;4.20;99.90;;;;;;5049621;28;20443;-68
2021/04/08 06:48:16;;;;;;;8.43;5.10;;;4.30;99.90;;;;;;5049566;28;20539;-68
2021/04/08 06:50:43;;;;;;;8.70;5.63;;;4.40;99.90;;;;;;5049765;28;20534;-68
2021/04/08 06:53:10;;;;;;;5.10;4.53;;;4.50;99.90;;;;;;5049442;28;20597;-68
2021/04/08 06:55:37;;;;;;;7.27;5.17;;;4.50;99.90;;;;;;5049618;28;21043;-68
2021/04/08 06:58:05;;;;;;;6.67;4.60;;;4.60;99.90;;;;;;5045311;28;20448;-68
2021/04/08 07:00:32;;;;;;;5.83;4.47;;;4.80;99.90;;;;;;5045093;28;20527;-68
2021/04/08 07:03:01;;;;;;;5.70;4.60;;;4.80;99.90;;;;;;5049299;28;20471;-68
2021/04/08 07:05:27;;;;;;;8.47;5.50;;;4.80;99.90;;;;;;5049388;28;20443;-67
2021/04/08 07:07:54;;;;;;;4.73;4.13;;;5.00;99.90;;;;;;5049537;28;20487;-68
2021/04/08 07:10:20;;;;;;;11.00;5.03;;;5.10;99.90;;;;;;5049335;28;21109;-68
2021/04/08 07:12:51;;;;;;;6.80;4.67;;;5.20;99.90;;;;;;5049071;28;20483;-68
2021/04/08 07:15:19;;;;;;;5.50;4.53;;;5.30;99.90;;;;;;5049506;28;20534;-68
2021/04/08 07:17:46;;;;;;;6.70;5.00;;;5.50;99.90;;;;;;5049400;28;20522;-69
2021/04/08 07:20:12;;;;;;;9.07;4.50;;;5.40;99.90;;;;;;5049076;28;20538;-68
2021/04/08 07:22:39;;;;;;;10.47;4.63;;;5.30;99.90;;;;;;5048910;28;20601;-68
2021/04/08 07:25:17;;;;;;;5.93;4.90;;;5.50;99.90;;;;;;5049425;28;20586;-68
2021/04/08 07:27:43;;;;;;;6.10;5.50;;;5.60;99.90;;;;;;5049383;28;20548;-71
2021/04/08 07:30:12;;;;;;;8.37;5.07;;;5.80;99.90;;;;;;5051607;28;20521;-70
2021/04/08 07:32:40;;;;;;;6.47;5.60;;;5.90;99.90;;;;;;5052477;28;20578;-70
2021/04/08 07:35:15;;;;;;;5.73;4.83;;;6.20;99.90;;;;;;5052931;28;20530;-68
2021/04/08 07:37:43;;;;;;;8.17;4.90;;;6.40;99.50;;;;;;5052697;28;20550;-67
2021/04/08 07:40:16;;;;;;;7.33;5.40;;;6.40;98.00;;;;;;5052639;28;20439;-68
2021/04/08 07:42:43;;;;;;;6.90;5.10;;;6.20;97.80;;;;;;5052164;28;20543;-70
2021/04/08 07:45:22;;;;;;;9.73;5.90;;;6.20;96.80;;;;;;5052709;28;20447;-68
2021/04/08 07:47:57;;;;;;;6.30;5.00;;;6.20;96.40;;;;;;5052401;28;20480;-68
2021/04/08 07:50:24;;;;;;;10.07;5.60;;;6.10;94.40;;;;;;5046653;28;20450;-67
2021/04/08 07:52:51;;;;;;;6.53;5.07;;;5.90;95.30;;;;;;5047116;28;20956;-67
2021/04/08 07:55:19;;;;;;;5.67;4.13;;;5.90;96.40;;;;;;5051900;28;20535;-67
2021/04/08 07:58:01;;;;;;;5.60;3.87;;;5.80;94.00;;;;;;5047530;28;20531;-67
2021/04/08 08:00:31;;;;;;;4.20;3.33;;;5.80;93.20;;;;;;5052287;28;20451;-67
2021/04/08 08:02:59;;;;;;;5.80;4.23;;;5.70;90.70;;;;;;5052065;28;20492;-68
2021/04/08 08:05:28;;;;;;;5.27;3.90;;;5.70;91.20;;;;;;5049120;28;20479;-67
2021/04/08 08:08:11;;;;;;;6.67;4.43;;;5.70;91.40;;;;;;5051869;28;20452;-66
2021/04/08 08:10:40;;;;;;;6.30;4.60;;;5.80;93.20;;;;;;5050398;28;20450;-67
2021/04/08 08:13:23;;;;;;;5.40;4.50;;;5.90;92.80;;;;;;5046144;28;20471;-70
2021/04/08 08:15:51;;;;;;;5.37;4.40;;;6.20;92.20;;;;;;5048250;28;20807;-69
2021/04/08 08:18:29;;;;;;;4.57;3.73;;;6.40;90.40;;;;;;5051422;28;20470;-69
2021/04/08 08:21:01;;;;;;;6.90;3.70;;;6.40;86.50;;;;;;5051095;28;20527;-69
2021/04/08 08:23:35;;;;;;;5.63;4.20;;;6.40;87.90;;;;;;5051147;28;20432;-70
2021/04/08 08:26:26;;;;;;;5.70;3.40;;;6.60;90.10;;;;;;5051147;28;20516;-69
2021/04/08 08:28:52;;;;;;;4.53;4.03;;;6.90;88.90;;;;;;5048038;28;20504;-69
2021/04/08 08:31:37;;;;;;;6.93;5.00;;;7.00;86.80;;;;;;5042139;28;20467;-70
2021/04/08 08:34:06;;;;;;;5.70;5.07;;;7.20;89.20;;;;;;5049420;28;20499;-72
2021/04/08 08:36:33;;;;;;;7.80;5.20;;;7.20;86.30;;;;;;5049327;28;21057;-70
2021/04/08 08:39:01;;;;;;;6.80;4.90;;;7.20;87.40;;;;;;5050056;28;20517;-74
2021/04/08 08:41:29;;;;;;;6.20;5.33;;;7.20;87.90;;;;;;5046222;28;20495;-69
2021/04/08 08:43:56;;;;;;;9.33;4.87;;;7.50;88.50;;;;;;5044253;28;20710;-70
2021/04/08 08:46:25;;;;;;;6.97;6.00;;;7.70;91.30;;;;;;5049944;28;20440;-69
2021/04/08 08:48:53;;;;;;;9.97;6.50;;;7.70;91.20;;;;;;5050438;28;20476;-69
2021/04/08 08:51:20;;;;;;;8.53;6.50;;;7.50;91.50;;;;;;5049268;28;20543;-69
2021/04/08 08:53:46;;;;;;;10.10;6.20;;;7.50;92.40;;;;;;5049065;28;20527;-70
2021/04/08 08:56:14;;;;;;;7.60;6.50;;;7.70;92.80;;;;;;5050008;28;20878;-70
2021/04/08 08:58:41;;;;;;;6.90;5.43;;;8.00;92.20;;;;;;5049630;28;20547;-75
2021/04/08 09:01:07;;;;;;;7.80;6.60;;;8.20;91.80;;;;;;5048947;28;20554;-69
2021/04/08 09:03:34;;;;;;;8.27;6.07;;;8.10;90.70;;;;;;5049131;28;20887;-70
2021/04/08 09:06:06;;;;;;;8.33;5.90;;;7.60;90.90;;;;;;5049956;28;20448;-69
2021/04/08 09:08:36;;;;;;;8.63;5.73;;;7.30;90.90;;;;;;5048231;28;20830;-69
2021/04/08 09:11:03;;;;;;;6.70;5.80;;;7.40;91.80;;;;;;5046857;28;20488;-69
2021/04/08 09:13:30;;;;;;;6.80;4.90;;;7.70;91.70;;;;;;5039908;28;20477;-69
2021/04/08 09:15:59;;;;;;;6.97;4.90;;;8.20;90.20;;;;;;5045226;28;20527;-70
2021/04/08 09:18:26;;;;;;;9.80;5.30;;;8.30;90.30;;;;;;5046166;28;20447;-70
2021/04/08 09:20:54;;;;;;;9.33;5.80;;;8.10;90.50;;;;;;5041013;28;20452;-71
2021/04/08 09:23:23;;;;;;;9.87;5.90;;;7.80;90.80;;;;;;5046000;28;20835;-69
2021/04/08 09:25:51;;;;;;;8.90;5.50;;;7.50;91.10;;;;;;5049073;28;21200;-70
2021/04/08 09:28:18;;;;;;;8.25;5.80;;;7.30;91.20;;;;;;5046628;28;20522;-70
2021/04/08 09:30:53;;;;;;;7.90;5.00;;;7.00;92.70;;;;;;5046070;28;20212;-71
2021/04/08 09:33:41;;;;;;;6.73;5.60;;;6.80;93.20;;;;;;5040802;28;20562;-69
2021/04/08 09:36:35;;;;;;;6.50;5.60;;;6.70;93.80;;;;;;5039044;28;21260;-70
2021/04/08 09:39:26;;;;;;;6.40;5.13;;;6.60;94.10;;;;;;5045718;28;20484;-69
2021/04/08 09:42:03;;;;;;;6.20;5.03;;;6.40;94.20;;;;;;5031225;28;20559;-69
2021/04/08 09:44:30;;;;;;;5.90;5.03;;;6.30;95.00;;;;;;5045420;28;20966;-70
2021/04/08 09:46:59;;;;;;;10.40;4.53;;;6.30;95.20;;;;;;5045329;28;20444;-69
2021/04/08 09:49:48;;;;;;;6.17;4.50;;;6.40;95.90;;;;;;5044421;28;20438;-70
2021/04/08 09:52:16;;;;;;;5.93;5.30;;;6.20;95.90;;;;;;5048069;28;20553;-68
2021/04/08 09:54:46;;;;;;;6.33;5.33;;;6.30;95.40;;;;;;5046941;28;20498;-68
2021/04/08 09:57:33;;;;;;;6.93;4.43;;;6.30;95.40;;;;;;5047664;28;20455;-69
2021/04/08 10:00:00;;;;;;;5.97;5.27;;;6.80;94.90;;;;;;5047994;28;20527;-68
2021/04/08 10:02:28;;;;;;;6.43;5.43;;;7.50;93.70;;;;;;5039532;28;20551;-69
2021/04/08 10:05:09;;;;;;;8.00;5.17;;;7.90;93.20;;;;;;5041360;28;20472;-68
2021/04/08 10:07:52;;;;;;;6.50;4.60;;;8.20;91.80;;;;;;5040402;28;20468;-69
2021/04/08 10:10:21;;;;;;;6.87;4.67;;;8.30;92.30;;;;;;5049721;28;20550;-69
2021/04/08 10:12:47;;;;;;;5.37;4.87;;;8.60;91.90;;;;;;5048360;28;20484;-69
2021/04/08 10:15:32;;;;;;;7.50;5.13;;;8.80;91.40;;;;;;5029127;28;20527;-69
2021/04/08 10:17:59;;;;;;;7.50;4.97;;;8.70;90.20;;;;;;5029407;28;20485;-68
2021/04/08 10:20:36;;;;;;;7.70;5.77;;;8.40;91.20;;;;;;5029581;28;20483;-68
2021/04/08 10:23:02;;;;;;;9.10;5.87;;;8.30;90.80;;;;;;5029092;28;20548;-69
2021/04/08 10:25:29;;;;;;;9.17;6.10;;;8.00;91.50;;;;;;5029163;28;20528;-67
2021/04/08 10:27:56;;;;;;;8.57;7.00;;;7.80;91.00;;;;;;5029109;28;20532;-68
2021/04/08 10:30:23;;;;;;;11.73;5.63;;;7.50;91.20;;;;;;5029164;28;20489;-68
2021/04/08 10:32:51;;;;;;;9.87;6.30;;;7.50;91.50;;;;;;5028977;28;20934;-68
2021/04/08 10:35:27;;;;;;;10.00;5.40;;;7.70;90.90;;;;;;5029443;28;20539;-68
2021/04/08 10:38:07;;;;;;;6.90;5.97;;;8.10;90.50;;;;;;5034342;28;20510;-69
2021/04/08 10:40:35;;;;;;;8.87;5.37;;;8.60;89.60;;;;;;5048736;28;20515;-69
2021/04/08 10:43:12;;;;;;;8.60;5.83;;;8.90;89.70;;;;;;5048557;28;20452;-70
2021/04/08 10:45:39;;;;;;;9.43;5.90;;;9.10;87.80;;;;;;5048847;28;20451;-69
2021/04/08 10:48:07;;;;;;;9.47;5.63;;;9.20;87.40;;;;;;5048662;28;20444;-70
2021/04/08 10:50:34;;;;;;;7.53;5.97;;;9.30;86.50;;;;;;5048303;28;21018;-70
2021/04/08 10:53:01;;;;;;;6.50;5.80;;;9.20;87.20;;;;;;5050063;28;20575;-68
2021/04/08 10:55:28;;;;;;;7.33;6.07;;;9.10;84.80;;;;;;5051143;28;20448;-68
2021/04/08 10:57:55;;;;;;;6.63;5.87;;;9.20;86.10;;;;;;5051485;28;20436;-70
2021/04/08 11:00:24;;;;;;;8.23;6.27;;;9.60;85.90;;;;;;5052642;28;20987;-68
2021/04/08 11:02:50;;;;;;;9.20;7.83;;;9.90;83.60;;;;;;5055998;28;20534;-67
2021/04/08 11:05:18;;;;;;;7.63;5.97;;;10.20;80.90;;;;;;5055614;28;20845;-69
2021/04/08 11:07:46;;;;;;;7.10;6.40;;;10.60;81.50;;;;;;5052470;28;21019;-68
2021/04/08 11:10:15;;;;;;;8.63;6.60;;;10.40;81.30;;;;;;5052456;28;20484;-68
2021/04/08 11:12:41;;;;;;;7.70;6.90;;;10.20;78.70;;;;;;5052109;28;20530;-69
2021/04/08 11:15:11;;;;;;;8.83;6.00;;;10.30;82.00;;;;;;5050687;28;20528;-68
2021/04/08 11:17:42;;;;;;;8.43;6.90;;;10.30;82.20;;;;;;5047560;28;20448;-68
2021/04/08 11:20:10;;;;;;;6.67;5.77;;;10.00;79.50;;;;;;5051579;28;20509;-70
2021/04/08 11:22:43;;;;;;;8.40;6.73;;;9.70;84.60;;;;;;5052290;28;20550;-69
2021/04/08 11:25:12;;;;;;;6.53;5.93;;;9.70;82.20;;;;;;5052016;28;20447;-69
2021/04/08 11:27:43;;;;;;;8.17;5.70;;;9.50;81.40;;;;;;5052800;28;20450;-69
2021/04/08 11:30:12;;;;;;;7.47;6.00;;;9.50;81.60;;;;;;5052344;28;20798;-69
2021/04/08 11:32:50;;;;;;;7.50;6.13;;;9.40;84.40;;;;;;5047154;28;20563;-69
2021/04/08 11:35:29;;;;;;;6.80;6.10;;;9.40;83.40;;;;;;5046838;28;20530;-69
2021/04/08 11:38:08;;;;;;;7.30;5.90;;;9.40;83.00;;;;;;5043017;28;20486;-69
2021/04/08 11:40:35;;;;;;;7.77;5.63;;;9.80;81.80;;;;;;5051098;28;20530;-71
2021/04/08 11:43:17;;;;;;;6.83;6.13;;;10.20;79.50;;;;;;5051666;28;20499;-70
2021/04/08 11:45:44;;;;;;;9.17;6.23;;;10.30;78.60;;;;;;5052217;28;20443;-68
2021/04/08 11:48:10;;;;;;;10.70;5.87;;;10.50;78.80;;;;;;5051822;28;20497;-70
2021/04/08 11:50:41;;;;;;;8.60;6.13;;;10.50;77.10;;;;;;5051734;28;20444;-70
2021/04/08 11:53:09;;;;;;;8.60;5.23;;;10.10;78.00;;;;;;5051162;28;20495;-68
2021/04/08 11:55:41;;;;;;;7.40;6.07;;;9.90;80.30;;;;;;5051676;28;20495;-70
2021/04/08 11:58:09;;;;;;;9.77;7.20;;;9.80;78.70;;;;;;5045071;28;20508;-68
2021/04/08 12:00:36;;;;;;;7.87;6.60;;;9.60;79.10;;;;;;5048919;28;20451;-69
2021/04/08 12:03:17;;;;;;;7.43;6.63;;;9.50;80.80;;;;;;5050416;28;20836;-68
2021/04/08 12:05:44;;;;;;;7.10;6.10;;;10.30;81.40;;;;;;5050620;28;20523;-68
2021/04/08 12:08:11;;;;;;;9.30;6.77;;;11.80;77.60;;;;;;5049603;28;20527;-70
2021/04/08 12:10:38;;;;;;;8.47;5.93;;;13.50;77.50;;;;;;5050582;28;20931;-70
2021/04/08 12:13:07;;;;;;;7.63;5.60;;;14.40;66.40;;;;;;5050392;28;20913;-69
2021/04/08 12:15:39;;;;;;;7.83;6.70;;;14.10;66.80;;;;;;5052717;28;20967;-72
2021/04/08 12:18:19;;;;;;;5.83;5.30;;;13.10;66.80;;;;;;5052279;28;20464;-71
2021/04/08 12:20:48;;;;;;;6.90;5.43;;;12.40;68.60;;;;;;5049357;28;20478;-69
2021/04/08 12:23:18;;;;;;;6.50;5.63;;;11.60;70.00;;;;;;5048293;28;20939;-70
2021/04/08 12:25:50;;;;;;;7.53;6.10;;;11.40;70.30;;;;;;5049896;28;20560;-69
2021/04/08 12:28:17;;;;;;;8.10;5.83;;;10.70;71.30;;;;;;5046933;28;20528;-67
2021/04/08 12:30:56;;;;;;;9.27;5.80;;;10.80;73.70;;;;;;5047485;28;20480;-71
2021/04/08 12:33:25;;;;;;;8.47;7.03;;;11.60;73.10;;;;;;5048080;28;20523;-70
2021/04/08 12:35:51;;;;;;;9.40;5.77;;;12.70;69.00;;;;;;5045601;28;20543;-70
2021/04/08 12:38:18;;;;;;;7.33;5.47;;;14.20;66.40;;;;;;5048820;28;20922;-71
2021/04/08 12:40:44;;;;;;;8.43;6.07;;;14.80;60.20;;;;;;5040043;28;20440;-70
2021/04/08 12:43:11;;;;;;;5.77;5.10;;;14.00;61.40;;;;;;5048124;28;20527;-71
2021/04/08 12:45:38;;;;;;;6.90;6.20;;;13.00;64.30;;;;;;5048260;28;20534;-69
2021/04/08 12:48:05;;;;;;;6.17;5.57;;;12.80;64.80;;;;;;5048098;28;20501;-69
2021/04/08 12:50:33;;;;;;;8.20;5.80;;;12.70;68.20;;;;;;5047949;28;20527;-69
2021/04/08 12:52:59;;;;;;;6.80;4.73;;;12.30;66.40;;;;;;5046122;28;20567;-67
2021/04/08 12:55:27;;;;;;;7.63;6.30;;;11.50;67.40;;;;;;5048270;28;20531;-69
2021/04/08 12:57:54;;;;;;;5.97;5.37;;;11.10;69.30;;;;;;5048602;28;20448;-68
2021/04/08 13:00:22;;;;;;;7.50;4.70;;;11.50;70.10;;;;;;5048116;28;20444;-68
2021/04/08 13:02:48;;;;;;;7.60;5.50;;;11.60;69.50;;;;;;5047445;28;20464;-68
2021/04/08 13:05:15;;;;;;;6.90;4.37;;;12.10;70.50;;;;;;5049409;28;20448;-69